Terminal Aerodrome Forecast
Issued by NWS

Home | Current Version | Previous Version | Text Only | Print | Product List | Glossary On
Versions: 1 2 3 4 5 6 7 8 9 10 11 12 13 14 15 16 17 18 19 20 21 22 23 24 25 26 27 28 29 30 31 32 33 34
000
FTUS43 KDVN 230222 AAA
TAFCID
TAF AMD
KCID 230222Z 2302/2324 24005KT P6SM BKN035
     FM230300 20004KT P6SM -DZ BKN015
     FM230500 35007KT 4SM -RADZ OVC008
     FM230700 34016G25KT 2SM -SN BR OVC005
     FM231000 32017G27KT P6SM OVC015=

USA.gov is the U.S. government's official web portal to all federal, state and local government web resources and services.